createdAt,value
2018-04-07T00:00:58.810Z,5.02
2018-04-07T00:02:05.944Z,4.94
2018-04-07T00:03:12.247Z,5.01
2018-04-07T00:04:20.175Z,4.94
2018-04-07T00:05:26.191Z,4.97
2018-04-07T00:06:32.868Z,4.98
2018-04-07T00:07:39.258Z,4.95
2018-04-07T00:08:45.726Z,4.92
2018-04-07T00:09:52.194Z,4.87
2018-04-07T00:10:58.229Z,4.86
2018-04-07T00:12:04.636Z,4.79
2018-04-07T00:13:10.961Z,4.69
2018-04-07T00:14:19.173Z,4.74
2018-04-07T00:15:25.483Z,4.62
2018-04-07T00:16:31.772Z,4.67
2018-04-07T00:17:38.346Z,4.62
2018-04-07T00:18:44.597Z,4.66
2018-04-07T00:19:51.224Z,4.66
2018-04-07T00:20:58.609Z,4.64
2018-04-07T00:22:04.896Z,4.65
2018-04-07T00:23:10.951Z,4.77
2018-04-07T00:24:17.253Z,4.71
2018-04-07T00:25:22.921Z,4.60
2018-04-07T00:26:29.196Z,4.48
2018-04-07T00:27:35.728Z,4.50
2018-04-07T00:28:41.956Z,4.47
2018-04-07T00:29:47.696Z,4.37
2018-04-07T00:30:53.959Z,4.32
2018-04-07T00:32:00.218Z,4.27
2018-04-07T00:33:06.462Z,4.21
2018-04-07T00:34:12.677Z,4.28
2018-04-07T00:35:18.896Z,4.21
2018-04-07T00:36:25.164Z,4.15
2018-04-07T00:37:31.348Z,4.21
2018-04-07T00:38:37.880Z,4.22
2018-04-07T00:39:43.931Z,4.21
2018-04-07T00:40:50.145Z,4.20
2018-04-07T00:41:56.444Z,4.06
2018-04-07T00:43:02.479Z,4.16
2018-04-07T00:44:08.795Z,4.10
2018-04-07T00:45:15.304Z,4.14
2018-04-07T00:46:21.562Z,4.19
2018-04-07T00:47:27.640Z,4.22
2018-04-07T00:48:34.726Z,4.24
2018-04-07T00:49:40.954Z,4.28
2018-04-07T00:50:47.192Z,4.21
2018-04-07T00:51:54.087Z,4.21
2018-04-07T00:53:00.263Z,4.24
2018-04-07T00:54:06.512Z,4.27
2018-04-07T00:55:12.792Z,4.27
2018-04-07T00:56:19.100Z,4.22
2018-04-07T00:57:25.155Z,4.05
2018-04-07T00:58:31.424Z,4.10
2018-04-07T00:59:37.679Z,3.91
2018-04-07T01:00:43.696Z,3.94
2018-04-07T01:01:50.193Z,3.93
2018-04-07T01:02:56.986Z,3.91
2018-04-07T01:04:03.229Z,3.83
2018-04-07T01:05:09.504Z,3.83
2018-04-07T01:06:15.750Z,3.90
2018-04-07T01:07:25.204Z,3.84
2018-04-07T01:08:31.422Z,3.85
2018-04-07T01:09:42.748Z,3.85
2018-04-07T01:10:49.017Z,3.79
2018-04-07T01:11:55.294Z,3.78
2018-04-07T01:13:01.271Z,3.74
2018-04-07T01:14:07.479Z,3.80
2018-04-07T01:15:13.482Z,3.82
2018-04-07T01:16:19.735Z,3.77
2018-04-07T01:17:26.189Z,3.77
2018-04-07T01:18:37.855Z,3.72
2018-04-07T01:19:44.096Z,3.74
2018-04-07T01:20:50.318Z,3.78
2018-04-07T01:21:56.582Z,3.76
2018-04-07T01:23:02.852Z,3.69
2018-04-07T01:24:09.118Z,3.72
2018-04-07T01:25:15.348Z,3.74
2018-04-07T01:26:21.608Z,3.77
2018-04-07T01:27:28.698Z,3.70
2018-04-07T01:28:35.003Z,3.71
2018-04-07T01:29:41.653Z,3.68
2018-04-07T01:30:47.911Z,3.65
2018-04-07T01:31:54.657Z,3.62
2018-04-07T01:33:00.876Z,3.62
2018-04-07T01:34:07.125Z,3.61
2018-04-07T01:35:13.399Z,3.61
2018-04-07T01:36:19.678Z,3.56
2018-04-07T01:37:25.908Z,3.52
2018-04-07T01:38:32.209Z,3.50
2018-04-07T01:39:38.229Z,3.46
2018-04-07T01:40:44.470Z,3.44
2018-04-07T01:41:50.605Z,3.45
2018-04-07T01:42:56.878Z,3.46
2018-04-07T01:44:03.132Z,3.35
2018-04-07T01:45:09.384Z,3.35
2018-04-07T01:46:15.647Z,3.28
2018-04-07T01:47:21.847Z,3.18
2018-04-07T01:48:32.340Z,3.16
2018-04-07T01:49:43.417Z,3.15
2018-04-07T01:50:49.917Z,3.11
2018-04-07T01:51:56.184Z,3.12
2018-04-07T01:53:02.122Z,3.24
2018-04-07T01:54:08.381Z,3.29
2018-04-07T01:55:14.674Z,3.37
2018-04-07T01:56:20.579Z,3.27
2018-04-07T01:57:26.822Z,3.52
2018-04-07T01:58:33.092Z,3.55
2018-04-07T01:59:39.437Z,3.47
2018-04-07T02:00:47.167Z,3.66
2018-04-07T02:01:53.456Z,3.70
2018-04-07T02:02:59.676Z,3.67
2018-04-07T02:04:05.652Z,3.62
2018-04-07T02:05:11.841Z,3.57
2018-04-07T02:06:18.049Z,3.70
2018-04-07T02:07:24.271Z,3.77
2018-04-07T02:08:30.563Z,3.78
2018-04-07T02:09:36.832Z,3.69
2018-04-07T02:10:42.683Z,3.83
2018-04-07T02:11:48.945Z,3.75
2018-04-07T02:12:55.385Z,3.77
2018-04-07T02:14:01.337Z,3.75
2018-04-07T02:15:07.947Z,3.80
2018-04-07T02:16:14.180Z,3.84
2018-04-07T02:17:20.446Z,3.75
2018-04-07T02:18:26.704Z,3.81
2018-04-07T02:19:33.054Z,3.64
2018-04-07T02:20:39.288Z,3.74
2018-04-07T02:21:45.602Z,3.57
2018-04-07T02:22:51.509Z,3.58
2018-04-07T02:23:57.766Z,3.42
2018-04-07T02:25:04.074Z,3.50
2018-04-07T02:26:10.308Z,3.55
2018-04-07T02:27:16.567Z,3.48
2018-04-07T02:28:22.468Z,3.50
2018-04-07T02:29:28.732Z,3.54
2018-04-07T02:30:36.286Z,3.56
2018-04-07T02:31:42.531Z,3.51
2018-04-07T02:32:49.250Z,3.60
2018-04-07T02:33:55.461Z,3.65
2018-04-07T02:35:01.764Z,3.67
2018-04-07T02:36:08.017Z,3.62
2018-04-07T02:37:14.304Z,3.71
2018-04-07T02:38:20.541Z,3.81
2018-04-07T02:39:26.804Z,3.70
2018-04-07T02:40:33.058Z,3.68
2018-04-07T02:41:39.289Z,3.68
2018-04-07T02:42:46.318Z,3.63
2018-04-07T02:43:52.716Z,3.65
2018-04-07T02:44:59.006Z,3.67
2018-04-07T02:46:05.261Z,3.51
2018-04-07T02:47:11.390Z,3.44
2018-04-07T02:48:17.723Z,3.42
2018-04-07T02:49:23.989Z,3.53
2018-04-07T02:50:30.286Z,3.53
2018-04-07T02:51:43.126Z,3.54
2018-04-07T02:52:49.351Z,3.60
2018-04-07T02:53:55.556Z,3.62
2018-04-07T02:55:01.827Z,3.34
2018-04-07T02:56:07.839Z,3.50
2018-04-07T02:57:14.093Z,3.45
2018-04-07T02:58:20.385Z,3.61
2018-04-07T02:59:26.617Z,3.56
2018-04-07T03:00:32.849Z,3.54
2018-04-07T03:01:39.071Z,3.52
2018-04-07T03:02:45.288Z,3.35
2018-04-07T03:03:51.535Z,3.34
2018-04-07T03:04:57.774Z,3.33
2018-04-07T03:06:04.073Z,3.42
2018-04-07T03:07:10.055Z,3.46
2018-04-07T03:08:16.328Z,3.39
2018-04-07T03:09:22.603Z,3.43
2018-04-07T03:10:28.825Z,3.28
2018-04-07T03:11:35.150Z,3.44
2018-04-07T03:12:41.371Z,3.38
2018-04-07T03:13:53.612Z,3.34
2018-04-07T03:14:59.950Z,3.48
2018-04-07T03:16:06.195Z,3.34
2018-04-07T03:17:12.429Z,3.31
2018-04-07T03:18:18.703Z,3.43
2018-04-07T03:19:24.960Z,3.32
2018-04-07T03:20:31.212Z,3.40
2018-04-07T03:21:37.512Z,3.50
2018-04-07T03:22:43.572Z,3.44
2018-04-07T03:23:49.796Z,3.47
2018-04-07T03:24:56.142Z,3.48
2018-04-07T03:26:02.506Z,3.32
2018-04-07T03:27:08.782Z,3.26
2018-04-07T03:28:14.991Z,3.32
2018-04-07T03:29:21.330Z,3.36
2018-04-07T03:30:27.582Z,3.37
2018-04-07T03:31:33.801Z,3.30
2018-04-07T03:32:40.084Z,3.29
2018-04-07T03:33:46.470Z,3.42
2018-04-07T03:34:52.748Z,3.49
2018-04-07T03:35:59.005Z,3.38
2018-04-07T03:37:05.368Z,3.42
2018-04-07T03:38:11.670Z,3.43
2018-04-07T03:39:17.947Z,3.41
2018-04-07T03:40:24.168Z,3.39
2018-04-07T03:41:30.418Z,3.25
2018-04-07T03:42:36.426Z,3.24
2018-04-07T03:43:42.739Z,3.24
2018-04-07T03:44:48.771Z,3.22
2018-04-07T03:45:54.797Z,3.27
2018-04-07T03:47:01.555Z,3.28
2018-04-07T03:48:07.614Z,3.14
2018-04-07T03:49:13.635Z,3.21
2018-04-07T03:50:19.682Z,3.10
2018-04-07T03:51:25.960Z,3.05
2018-04-07T03:52:32.233Z,3.08
2018-04-07T03:53:39.283Z,3.21
2018-04-07T03:54:45.968Z,3.22
2018-04-07T03:55:51.913Z,3.09
2018-04-07T03:56:58.147Z,3.04
2018-04-07T03:58:04.561Z,3.05
2018-04-07T03:59:10.572Z,3.00
2018-04-07T04:00:16.847Z,3.02
2018-04-07T04:01:22.827Z,3.01
2018-04-07T04:02:29.069Z,2.90
2018-04-07T04:03:35.334Z,2.87
2018-04-07T04:04:41.352Z,2.77
2018-04-07T04:05:47.394Z,2.74
2018-04-07T04:06:53.706Z,2.73
2018-04-07T04:07:59.940Z,2.82
2018-04-07T04:09:06.752Z,2.81
2018-04-07T04:10:13.028Z,2.78
2018-04-07T04:11:19.268Z,2.81
2018-04-07T04:12:25.491Z,2.69
2018-04-07T04:13:31.728Z,2.70
2018-04-07T04:14:37.968Z,2.64
2018-04-07T04:15:44.277Z,2.58
2018-04-07T04:16:50.253Z,2.62
2018-04-07T04:17:56.459Z,2.62
2018-04-07T04:19:02.732Z,2.61
2018-04-07T04:20:08.928Z,2.62
2018-04-07T04:21:15.222Z,2.67
2018-04-07T04:22:21.764Z,2.61
2018-04-07T04:23:27.993Z,2.55
2018-04-07T04:24:34.241Z,2.54
2018-04-07T04:25:40.495Z,2.71
2018-04-07T04:26:46.792Z,2.70
2018-04-07T04:27:53.013Z,2.65
2018-04-07T04:28:59.222Z,2.64
2018-04-07T04:30:05.876Z,2.52
2018-04-07T04:31:12.110Z,2.47
2018-04-07T04:32:18.433Z,2.44
2018-04-07T04:33:26.135Z,2.43
2018-04-07T04:34:32.386Z,2.37
2018-04-07T04:35:39.242Z,2.37
2018-04-07T04:36:45.466Z,2.54
2018-04-07T04:37:52.408Z,2.32
2018-04-07T04:38:58.653Z,2.39
2018-04-07T04:40:04.537Z,2.35
2018-04-07T04:41:10.834Z,2.30
2018-04-07T04:42:17.130Z,2.32
2018-04-07T04:43:24.116Z,2.27
2018-04-07T04:44:30.317Z,2.32
2018-04-07T04:45:36.626Z,2.31
2018-04-07T04:46:43.229Z,2.24
2018-04-07T04:47:49.492Z,2.37
2018-04-07T04:48:55.735Z,2.52
2018-04-07T04:50:02.004Z,2.42
2018-04-07T04:51:08.425Z,2.37
2018-04-07T04:52:14.667Z,2.42
2018-04-07T04:53:21.005Z,2.60
2018-04-07T04:54:27.239Z,2.53
2018-04-07T04:55:33.494Z,2.52
2018-04-07T04:56:39.828Z,2.58
2018-04-07T04:57:46.944Z,2.51
2018-04-07T04:58:53.158Z,2.56
2018-04-07T04:59:59.394Z,2.46
2018-04-07T05:01:05.637Z,2.57
2018-04-07T05:02:12.595Z,2.54
2018-04-07T05:03:18.806Z,2.56
2018-04-07T05:04:24.842Z,2.62
2018-04-07T05:05:31.136Z,2.65
2018-04-07T05:06:37.426Z,2.60
2018-04-07T05:07:43.729Z,2.64
2018-04-07T05:08:50.798Z,2.65
2018-04-07T05:09:56.993Z,2.72
2018-04-07T05:11:03.258Z,2.78
2018-04-07T05:12:09.463Z,2.95
2018-04-07T05:13:15.707Z,2.78
2018-04-07T05:14:21.916Z,2.83
2018-04-07T05:15:27.936Z,2.84
2018-04-07T05:16:34.008Z,2.94
2018-04-07T05:17:40.269Z,2.94
2018-04-07T05:18:47.447Z,2.99
2018-04-07T05:19:54.081Z,2.99
2018-04-07T05:21:00.331Z,2.94
2018-04-07T05:22:07.161Z,3.11
2018-04-07T05:23:13.432Z,3.13
2018-04-07T05:24:19.838Z,3.24
2018-04-07T05:25:26.103Z,3.44
2018-04-07T05:26:32.686Z,3.64
2018-04-07T05:27:38.928Z,3.96
2018-04-07T05:28:45.840Z,4.05
2018-04-07T05:29:52.889Z,4.21
2018-04-07T05:31:05.188Z,4.07
2018-04-07T05:32:11.412Z,4.10
2018-04-07T05:33:17.656Z,4.04
2018-04-07T05:34:23.621Z,3.97
2018-04-07T05:35:29.825Z,3.98
2018-04-07T05:36:36.011Z,4.03
2018-04-07T05:37:42.234Z,4.09
2018-04-07T05:38:48.431Z,4.22
2018-04-07T05:39:56.431Z,4.28
2018-04-07T05:41:03.406Z,4.25
2018-04-07T05:42:10.068Z,4.14
2018-04-07T05:43:16.815Z,4.30
2018-04-07T05:44:24.924Z,4.56
2018-04-07T05:45:31.640Z,4.85
2018-04-07T05:46:37.849Z,5.08
2018-04-07T05:47:44.241Z,5.10
2018-04-07T05:48:50.640Z,5.19
2018-04-07T05:49:57.011Z,5.48
2018-04-07T05:51:03.766Z,5.66
2018-04-07T05:52:10.432Z,5.84
2018-04-07T05:53:16.963Z,5.97
2018-04-07T05:54:23.887Z,5.92
2018-04-07T05:55:30.516Z,5.97
2018-04-07T05:56:36.959Z,6.18
2018-04-07T05:57:43.509Z,6.26
2018-04-07T05:58:50.333Z,6.21
2018-04-07T05:59:59.583Z,5.99
2018-04-07T06:01:07.796Z,5.85
2018-04-07T06:02:14.424Z,6.18
2018-04-07T06:03:20.782Z,6.41
2018-04-07T06:04:27.186Z,6.11
2018-04-07T06:05:33.912Z,6.40
2018-04-07T06:06:40.137Z,6.30
2018-04-07T06:07:46.532Z,6.02
2018-04-07T06:08:53.079Z,6.01
2018-04-07T06:09:58.935Z,6.11
2018-04-07T06:11:05.246Z,6.41
2018-04-07T06:12:12.145Z,6.40
2018-04-07T06:13:18.786Z,6.41
2018-04-07T06:14:25.321Z,6.28
2018-04-07T06:15:31.716Z,6.72
2018-04-07T06:16:38.585Z,6.57
2018-04-07T06:17:44.994Z,6.77
2018-04-07T06:18:51.500Z,6.71
2018-04-07T06:19:59.206Z,6.10
2018-04-07T06:21:06.148Z,5.96
2018-04-07T06:22:12.915Z,6.24
2018-04-07T06:23:19.406Z,6.44
2018-04-07T06:24:26.065Z,6.37
2018-04-07T06:25:32.408Z,6.27
2018-04-07T06:26:38.894Z,6.35
2018-04-07T06:27:45.602Z,6.54
2018-04-07T06:28:52.113Z,6.59
2018-04-07T06:29:58.427Z,6.91
2018-04-07T06:31:04.984Z,6.87
2018-04-07T06:32:11.539Z,7.05
2018-04-07T06:33:18.135Z,7.41
2018-04-07T06:34:24.797Z,7.70
2018-04-07T06:35:31.265Z,7.68
2018-04-07T06:36:37.929Z,7.22
2018-04-07T06:37:45.527Z,7.27
2018-04-07T06:38:53.000Z,7.32
2018-04-07T06:40:00.938Z,7.40
2018-04-07T06:41:07.975Z,7.75
2018-04-07T06:42:14.208Z,7.63
2018-04-07T06:43:20.400Z,7.71
2018-04-07T06:44:26.609Z,7.75
2018-04-07T06:45:32.837Z,7.77
2018-04-07T06:46:38.876Z,7.74
2018-04-07T06:47:45.120Z,7.60
2018-04-07T06:48:51.315Z,7.78
2018-04-07T06:49:57.192Z,8.06
2018-04-07T06:51:03.412Z,7.82
2018-04-07T06:52:09.663Z,7.61
2018-04-07T06:53:17.384Z,7.38
2018-04-07T06:54:23.774Z,7.30
2018-04-07T06:55:30.089Z,7.57
2018-04-07T06:56:36.362Z,7.88
2018-04-07T06:57:42.695Z,7.85
2018-04-07T06:58:50.091Z,7.96
2018-04-07T06:59:56.901Z,7.68
2018-04-07T07:01:03.641Z,7.59
2018-04-07T07:02:10.079Z,7.75
2018-04-07T07:03:16.528Z,7.71
2018-04-07T07:04:22.859Z,7.55
2018-04-07T07:05:29.963Z,7.76
2018-04-07T07:06:37.878Z,7.52
2018-04-07T07:07:44.170Z,7.57
2018-04-07T07:08:50.649Z,7.77
2018-04-07T07:09:57.196Z,8.07
2018-04-07T07:11:03.465Z,8.09
2018-04-07T07:12:09.977Z,8.20
2018-04-07T07:13:16.621Z,7.87
2018-04-07T07:14:23.201Z,8.03
2018-04-07T07:15:29.572Z,8.23
2018-04-07T07:16:36.382Z,8.04
2018-04-07T07:17:44.065Z,8.37
2018-04-07T07:18:50.184Z,8.51
2018-04-07T07:19:56.657Z,8.60
2018-04-07T07:21:03.086Z,8.88
2018-04-07T07:22:09.484Z,9.12
2018-04-07T07:23:16.789Z,9.46
2018-04-07T07:24:27.297Z,9.31
2018-04-07T07:25:39.908Z,9.45
2018-04-07T07:26:45.997Z,9.72
2018-04-07T07:27:52.256Z,9.80
2018-04-07T07:28:58.504Z,9.76
2018-04-07T07:30:04.066Z,9.21
2018-04-07T07:31:10.111Z,9.39
2018-04-07T07:32:16.422Z,9.58
2018-04-07T07:33:22.480Z,9.70
2018-04-07T07:34:28.792Z,9.08
2018-04-07T07:35:35.005Z,8.99
2018-04-07T07:36:41.482Z,9.06
2018-04-07T07:37:47.774Z,8.94
2018-04-07T07:38:55.515Z,8.88
2018-04-07T07:40:02.121Z,9.12
2018-04-07T07:41:09.082Z,9.20
2018-04-07T07:42:15.469Z,9.27
2018-04-07T07:43:21.801Z,9.37
2018-04-07T07:44:28.161Z,9.43
2018-04-07T07:45:34.491Z,9.45
2018-04-07T07:46:40.850Z,9.73
2018-04-07T07:47:47.320Z,9.86
2018-04-07T07:48:53.643Z,9.52
2018-04-07T07:50:00.012Z,9.71
2018-04-07T07:51:07.217Z,9.62
2018-04-07T07:52:13.526Z,9.60
2018-04-07T07:53:19.810Z,9.55
2018-04-07T07:54:26.171Z,9.56
2018-04-07T07:55:33.126Z,9.70
2018-04-07T07:56:39.685Z,9.80
2018-04-07T07:57:46.012Z,9.71
2018-04-07T07:58:52.453Z,9.99
2018-04-07T07:59:58.840Z,10.05
2018-04-07T08:01:05.346Z,10.15
2018-04-07T08:02:11.679Z,9.99
2018-04-07T08:03:18.081Z,10.21
2018-04-07T08:04:25.251Z,10.13
2018-04-07T08:05:31.647Z,10.12
2018-04-07T08:06:37.980Z,10.17
2018-04-07T08:07:44.344Z,10.03
2018-04-07T08:08:50.680Z,10.23
2018-04-07T08:09:57.030Z,10.36
2018-04-07T08:11:04.054Z,10.38
2018-04-07T08:12:10.462Z,10.51
2018-04-07T08:13:16.810Z,10.55
2018-04-07T08:14:23.473Z,10.58
2018-04-07T08:15:29.869Z,10.42
2018-04-07T08:16:36.165Z,10.54
2018-04-07T08:17:42.593Z,10.65
2018-04-07T08:18:48.969Z,10.66
2018-04-07T08:19:55.461Z,10.76
2018-04-07T08:21:02.380Z,10.95
2018-04-07T08:22:08.699Z,10.96
2018-04-07T08:23:14.985Z,11.00
2018-04-07T08:24:21.292Z,11.16
2018-04-07T08:25:27.581Z,11.07
2018-04-07T08:26:33.880Z,11.08
2018-04-07T08:27:40.441Z,10.99
2018-04-07T08:28:46.889Z,11.09
2018-04-07T08:29:53.190Z,11.14
2018-04-07T08:30:59.255Z,11.18
2018-04-07T08:32:05.247Z,11.06
2018-04-07T08:33:11.695Z,11.25
2018-04-07T08:34:17.745Z,11.19
2018-04-07T08:35:24.056Z,11.38
2018-04-07T08:36:30.788Z,11.63
2018-04-07T08:37:37.615Z,11.73
2018-04-07T08:38:43.632Z,11.84
2018-04-07T08:39:49.895Z,11.86
2018-04-07T08:40:56.174Z,11.92
2018-04-07T08:42:02.416Z,11.94
2018-04-07T08:43:08.661Z,12.24
2018-04-07T08:44:14.946Z,12.18
2018-04-07T08:45:21.208Z,12.14
2018-04-07T08:46:27.656Z,12.07
2018-04-07T08:47:33.932Z,12.28
2018-04-07T08:48:42.079Z,12.36
2018-04-07T08:49:48.341Z,12.44
2018-04-07T08:50:54.591Z,12.43
2018-04-07T08:52:00.833Z,12.47
2018-04-07T08:53:07.076Z,12.45
2018-04-07T08:54:13.362Z,12.41
2018-04-07T08:55:19.690Z,12.44
2018-04-07T08:56:25.973Z,12.40
2018-04-07T08:57:32.244Z,12.41
2018-04-07T08:58:38.522Z,12.52
2018-04-07T08:59:44.805Z,12.48
2018-04-07T09:00:51.084Z,12.69
2018-04-07T09:01:57.357Z,12.59
2018-04-07T09:03:03.851Z,12.90
2018-04-07T09:04:10.093Z,13.18
2018-04-07T09:05:16.365Z,13.08
2018-04-07T09:06:22.608Z,13.20
2018-04-07T09:07:28.878Z,13.13
2018-04-07T09:08:35.107Z,13.04
2018-04-07T09:09:41.386Z,13.26
2018-04-07T09:10:47.636Z,13.48
2018-04-07T09:11:53.865Z,13.16
2018-04-07T09:13:00.117Z,13.39
2018-04-07T09:14:06.350Z,13.64
2018-04-07T09:15:12.585Z,13.71
2018-04-07T09:16:18.884Z,13.44
2018-04-07T09:17:25.126Z,13.32
2018-04-07T09:18:31.376Z,13.04
2018-04-07T09:19:37.432Z,12.92
2018-04-07T09:20:43.688Z,13.05
2018-04-07T09:21:50.775Z,12.92
2018-04-07T09:22:57.117Z,13.02
2018-04-07T09:24:03.455Z,13.35
2018-04-07T09:25:09.698Z,13.58
2018-04-07T09:26:15.919Z,13.67
2018-04-07T09:27:22.179Z,13.72
2018-04-07T09:28:28.432Z,13.82
2018-04-07T09:29:34.737Z,13.69
2018-04-07T09:30:40.979Z,13.90
2018-04-07T09:31:47.262Z,14.04
2018-04-07T09:32:53.505Z,14.20
2018-04-07T09:33:59.792Z,13.88
2018-04-07T09:35:06.073Z,13.72
2018-04-07T09:36:12.385Z,13.68
2018-04-07T09:37:18.653Z,13.70
2018-04-07T09:38:24.962Z,13.70
2018-04-07T09:39:31.232Z,13.63
2018-04-07T09:40:37.576Z,13.58
2018-04-07T09:41:43.854Z,13.73
2018-04-07T09:42:50.245Z,13.77
2018-04-07T09:43:56.318Z,13.92
2018-04-07T09:45:07.641Z,14.02
2018-04-07T09:46:13.652Z,14.08
2018-04-07T09:47:19.921Z,14.09
2018-04-07T09:48:26.170Z,14.16
2018-04-07T09:49:32.456Z,14.14
2018-04-07T09:50:41.598Z,13.98
2018-04-07T09:51:47.855Z,13.98
2018-04-07T09:52:54.159Z,14.03
2018-04-07T09:54:00.433Z,14.25
2018-04-07T09:55:06.656Z,14.26
2018-04-07T09:56:12.948Z,14.53
2018-04-07T09:57:20.530Z,14.79
2018-04-07T09:58:26.921Z,14.83
2018-04-07T09:59:33.228Z,15.03
2018-04-07T10:00:39.290Z,14.62
2018-04-07T10:01:45.601Z,14.62
2018-04-07T10:03:06.500Z,14.62
2018-04-07T10:04:12.748Z,14.48
2018-04-07T10:05:20.210Z,14.31
2018-04-07T10:06:26.664Z,14.47
2018-04-07T10:07:32.971Z,14.71
2018-04-07T10:08:39.119Z,14.62
2018-04-07T10:09:46.002Z,14.74
2018-04-07T10:10:52.316Z,14.51
2018-04-07T10:12:09.114Z,14.53
2018-04-07T10:13:16.297Z,14.74
2018-04-07T10:14:22.669Z,14.82
2018-04-07T10:15:29.033Z,14.73
2018-04-07T10:16:35.366Z,15.00
2018-04-07T10:17:42.241Z,15.25
2018-04-07T10:18:48.384Z,14.98
2018-04-07T10:19:54.759Z,14.96
2018-04-07T10:21:01.226Z,15.08
2018-04-07T10:22:07.584Z,14.98
2018-04-07T10:23:13.972Z,15.11
2018-04-07T10:24:20.499Z,15.40
2018-04-07T10:25:26.941Z,15.27
2018-04-07T10:26:33.918Z,15.48
2018-04-07T10:27:40.040Z,15.57
2018-04-07T10:28:47.271Z,15.30
2018-04-07T10:29:54.585Z,15.43
2018-04-07T10:31:00.903Z,15.00
2018-04-07T10:32:06.895Z,15.16
2018-04-07T10:33:20.074Z,15.30
2018-04-07T10:34:26.353Z,15.21
2018-04-07T10:35:32.611Z,15.37
2018-04-07T10:36:39.517Z,15.61
2018-04-07T10:37:46.515Z,15.71
2018-04-07T10:38:52.781Z,15.67
2018-04-07T10:39:59.021Z,15.51
2018-04-07T10:41:05.298Z,15.33
2018-04-07T10:42:11.546Z,15.37
2018-04-07T10:43:17.805Z,15.16
2018-04-07T10:44:24.052Z,15.35
2018-04-07T10:45:30.305Z,15.44
2018-04-07T10:46:36.535Z,15.58
2018-04-07T10:47:42.793Z,15.38
2018-04-07T10:48:48.711Z,15.24
2018-04-07T10:49:54.979Z,15.37
2018-04-07T10:51:01.240Z,15.47
2018-04-07T10:52:07.502Z,15.48
2018-04-07T10:53:13.751Z,15.39
2018-04-07T10:54:25.754Z,15.46
2018-04-07T10:55:33.109Z,15.58
2018-04-07T10:56:40.235Z,15.47
2018-04-07T10:57:46.526Z,15.47
2018-04-07T10:58:52.784Z,15.34
2018-04-07T10:59:58.792Z,15.26
2018-04-07T11:01:05.270Z,15.31
2018-04-07T11:02:11.519Z,15.39
2018-04-07T11:03:18.333Z,15.45
2018-04-07T11:04:24.593Z,15.72
2018-04-07T11:05:30.834Z,15.66
2018-04-07T11:06:37.093Z,15.78
2018-04-07T11:07:43.565Z,15.81
2018-04-07T11:08:49.795Z,15.80
2018-04-07T11:09:56.051Z,15.83
2018-04-07T11:11:02.332Z,15.90
2018-04-07T11:12:08.598Z,16.07
2018-04-07T11:13:14.871Z,16.02
2018-04-07T11:14:21.126Z,16.04
2018-04-07T11:15:28.053Z,16.26
2018-04-07T11:16:34.340Z,16.41
2018-04-07T11:17:40.649Z,16.36
2018-04-07T11:18:46.932Z,16.60
2018-04-07T11:19:53.254Z,16.63
2018-04-07T11:20:59.586Z,16.53
2018-04-07T11:22:05.864Z,16.77
2018-04-07T11:23:12.173Z,16.65
2018-04-07T11:24:18.423Z,16.59
2018-04-07T11:25:24.675Z,16.47
2018-04-07T11:26:30.705Z,16.31
2018-04-07T11:27:36.951Z,16.53
2018-04-07T11:28:43.228Z,16.41
2018-04-07T11:29:49.468Z,16.26
2018-04-07T11:30:55.732Z,16.28
2018-04-07T11:32:02.015Z,16.34
2018-04-07T11:33:08.313Z,16.56
2018-04-07T11:34:14.730Z,16.49
2018-04-07T11:35:21.271Z,16.52
2018-04-07T11:36:32.686Z,16.33
2018-04-07T11:37:40.798Z,16.51
2018-04-07T11:38:47.084Z,16.71
2018-04-07T11:39:53.372Z,16.70
2018-04-07T11:40:59.621Z,16.73
2018-04-07T11:42:06.162Z,16.82
2018-04-07T11:43:12.507Z,16.70
2018-04-07T11:44:18.822Z,16.63
2018-04-07T11:45:25.100Z,16.63
2018-04-07T11:46:31.467Z,16.81
2018-04-07T11:47:37.827Z,17.10
2018-04-07T11:48:44.112Z,16.96
2018-04-07T11:49:50.181Z,16.90
2018-04-07T11:50:56.451Z,16.96
2018-04-07T11:52:02.720Z,16.77
2018-04-07T11:53:08.730Z,16.69
2018-04-07T11:54:15.226Z,16.82
2018-04-07T11:55:21.500Z,16.73
2018-04-07T11:56:27.772Z,16.93
2018-04-07T11:57:35.148Z,17.16
2018-04-07T11:58:41.420Z,17.21
2018-04-07T11:59:47.693Z,17.26
2018-04-07T12:00:53.982Z,17.40
2018-04-07T12:02:00.245Z,16.99
2018-04-07T12:03:06.536Z,16.97
2018-04-07T12:04:12.825Z,16.99
2018-04-07T12:05:19.124Z,17.08
2018-04-07T12:06:25.427Z,17.05
2018-04-07T12:07:31.712Z,16.99
2018-04-07T12:08:37.984Z,17.11
2018-04-07T12:09:44.204Z,17.09
2018-04-07T12:10:50.481Z,16.97
2018-04-07T12:11:57.222Z,16.83
2018-04-07T12:13:03.517Z,16.85
2018-04-07T12:14:09.801Z,16.96
2018-04-07T12:15:16.164Z,17.03
2018-04-07T12:16:22.209Z,17.13
2018-04-07T12:17:28.483Z,17.25
2018-04-07T12:18:34.740Z,17.18
2018-04-07T12:19:41.066Z,17.15
2018-04-07T12:20:47.370Z,17.17
2018-04-07T12:21:53.373Z,17.07
2018-04-07T12:22:59.682Z,17.24
2018-04-07T12:24:05.952Z,17.32
2018-04-07T12:25:12.256Z,17.44
2018-04-07T12:26:18.547Z,17.37
2018-04-07T12:27:24.813Z,17.48
2018-04-07T12:28:31.109Z,17.50
2018-04-07T12:29:37.433Z,17.57
2018-04-07T12:30:43.734Z,17.58
2018-04-07T12:31:50.026Z,17.50
2018-04-07T12:32:56.344Z,17.50
2018-04-07T12:34:02.253Z,17.58
2018-04-07T12:35:08.531Z,17.51
2018-04-07T12:36:14.779Z,17.59
2018-04-07T12:37:20.704Z,17.54
2018-04-07T12:38:26.952Z,17.60
2018-04-07T12:39:33.203Z,17.65
2018-04-07T12:40:39.463Z,17.88
2018-04-07T12:41:45.770Z,17.83
2018-04-07T12:42:52.030Z,17.83
2018-04-07T12:43:58.358Z,17.81
2018-04-07T12:45:04.314Z,17.80
2018-04-07T12:46:10.597Z,17.79
2018-04-07T12:47:16.861Z,17.78
2018-04-07T12:48:23.169Z,17.85
2018-04-07T12:49:29.439Z,17.93
2018-04-07T12:50:35.703Z,17.86
2018-04-07T12:51:41.956Z,17.83
2018-04-07T12:52:48.236Z,17.89
2018-04-07T12:53:54.655Z,18.01
2018-04-07T12:55:00.971Z,18.03
2018-04-07T12:56:07.276Z,18.19
2018-04-07T12:57:13.577Z,18.33
2018-04-07T12:58:19.874Z,18.18
2018-04-07T12:59:25.908Z,18.25
2018-04-07T13:00:32.199Z,18.23
2018-04-07T13:01:38.470Z,18.33
2018-04-07T13:02:44.542Z,18.31
2018-04-07T13:03:51.014Z,18.31
2018-04-07T13:04:57.730Z,18.36
2018-04-07T13:06:03.996Z,18.26
2018-04-07T13:07:10.314Z,18.34
2018-04-07T13:08:16.596Z,18.39
2018-04-07T13:09:24.659Z,18.67
2018-04-07T13:10:30.973Z,18.42
2018-04-07T13:11:37.440Z,18.46
2018-04-07T13:12:43.641Z,18.47
2018-04-07T13:13:50.111Z,18.38
2018-04-07T13:14:56.376Z,18.29
2018-04-07T13:16:02.631Z,18.18
2018-04-07T13:17:08.703Z,18.28
2018-04-07T13:18:14.957Z,18.47
2018-04-07T13:19:21.235Z,18.33
2018-04-07T13:20:27.722Z,18.41
2018-04-07T13:21:34.252Z,18.40
2018-04-07T13:22:40.685Z,18.36
2018-04-07T13:23:46.956Z,18.45
2018-04-07T13:24:53.237Z,18.39
2018-04-07T13:25:59.519Z,18.41
2018-04-07T13:27:05.801Z,18.39
2018-04-07T13:28:11.842Z,18.37
2018-04-07T13:29:18.082Z,18.43
2018-04-07T13:30:24.301Z,18.48
2018-04-07T13:31:30.594Z,18.58
2018-04-07T13:32:36.824Z,18.80
2018-04-07T13:33:42.839Z,18.81
2018-04-07T13:34:49.104Z,18.73
2018-04-07T13:35:55.381Z,18.68
2018-04-07T13:37:01.644Z,18.79
2018-04-07T13:38:07.904Z,18.81
2018-04-07T13:39:14.403Z,18.81
2018-04-07T13:40:20.956Z,18.75
2018-04-07T13:41:27.264Z,18.89
2018-04-07T13:42:33.536Z,18.90
2018-04-07T13:43:39.819Z,18.84
2018-04-07T13:44:46.141Z,18.72
2018-04-07T13:45:52.421Z,18.75
2018-04-07T13:46:58.676Z,18.91
2018-04-07T13:48:04.531Z,18.82
2018-04-07T13:49:10.805Z,18.93
2018-04-07T13:50:17.054Z,18.94
2018-04-07T13:51:23.310Z,18.96
2018-04-07T13:52:29.590Z,18.94
2018-04-07T13:53:35.919Z,18.97
2018-04-07T13:54:42.202Z,18.98
2018-04-07T13:55:48.464Z,19.04
2018-04-07T13:56:54.775Z,19.10
2018-04-07T13:58:01.012Z,19.19
2018-04-07T13:59:06.936Z,19.24
2018-04-07T14:00:13.424Z,19.20
2018-04-07T14:01:19.685Z,19.11
2018-04-07T14:02:25.952Z,19.08
2018-04-07T14:03:32.218Z,19.08
2018-04-07T14:04:38.512Z,19.14
2018-04-07T14:05:44.739Z,19.23
2018-04-07T14:06:51.009Z,19.23
2018-04-07T14:08:04.030Z,19.11
2018-04-07T14:09:10.329Z,19.06
2018-04-07T14:10:16.596Z,19.36
2018-04-07T14:11:22.864Z,19.36
2018-04-07T14:12:34.548Z,19.33
2018-04-07T14:13:40.823Z,19.33
2018-04-07T14:14:49.464Z,19.21
2018-04-07T14:15:55.767Z,19.28
2018-04-07T14:17:02.047Z,19.35
2018-04-07T14:18:08.307Z,19.30
2018-04-07T14:19:14.559Z,19.29
2018-04-07T14:20:20.795Z,19.28
2018-04-07T14:21:27.043Z,19.40
2018-04-07T14:22:33.309Z,19.39
2018-04-07T14:23:39.549Z,19.49
2018-04-07T14:24:45.788Z,19.50
2018-04-07T14:25:52.036Z,19.39
2018-04-07T14:26:58.358Z,19.46
2018-04-07T14:28:05.504Z,19.36
2018-04-07T14:29:11.749Z,19.34
2018-04-07T14:30:18.010Z,19.56
2018-04-07T14:31:24.258Z,19.51
2018-04-07T14:32:30.549Z,19.52